Time;durP1;ratioP1;P1;durP2;ratioP2;P2;SDS_P1;SDS_P2;PMS_P1;PMS_P2;Temp;Humidity;BMP_temperature;BMP_pressure;BME280_temperature;BME280_humidity;BME280_pressure;Samples;Min_cycle;Max_cycle;Signal;HPM_P1;HPM_P2
2022/04/25 00:00:57;;;;;;;;;;;7.20;99.90;;;;;;5012151;28;20049;-64
2022/04/25 00:03:24;;;;;;;0.30;0.30;;;7.20;99.90;;;;;;5008069;28;19947;-64
2022/04/25 00:05:52;;;;;;;2.08;0.40;;;7.20;99.90;;;;;;5011276;28;20919;-63
2022/04/25 00:08:19;;;;;;;0.57;0.50;;;7.20;99.90;;;;;;4988291;28;20713;-64
2022/04/25 00:10:46;;;;;;;0.75;0.50;;;7.20;99.90;;;;;;4990800;28;20045;-64
2022/04/25 00:13:14;;;;;;;1.15;0.50;;;7.20;99.90;;;;;;4990858;28;20569;-64
2022/04/25 00:15:41;;;;;;;0.80;0.50;;;7.20;99.90;;;;;;4996683;28;20554;-64
2022/04/25 00:18:08;;;;;;;0.50;0.47;;;7.20;99.90;;;;;;4974578;28;20033;-64
2022/04/25 00:20:36;;;;;;;1.55;0.43;;;7.20;99.90;;;;;;4988455;28;20201;-64
2022/04/25 00:23:06;;;;;;;2.55;0.65;;;7.20;99.90;;;;;;4991091;28;20052;-64
2022/04/25 00:25:35;;;;;;;0.65;0.38;;;7.20;99.90;;;;;;4989943;28;20562;-65
2022/04/25 00:28:03;;;;;;;0.75;0.60;;;7.20;99.90;;;;;;4986600;28;20795;-65
2022/04/25 00:30:31;;;;;;;0.40;0.40;;;7.20;99.90;;;;;;4991721;28;20091;-66
2022/04/25 00:32:59;;;;;;;4.13;0.70;;;7.20;99.90;;;;;;4990944;28;20041;-65
2022/04/25 00:35:27;;;;;;;1.33;0.52;;;7.20;99.90;;;;;;5008872;28;20044;-65
2022/04/25 00:37:54;;;;;;;0.40;0.40;;;7.20;99.90;;;;;;5009403;28;20135;-65
2022/04/25 00:40:23;;;;;;;1.02;0.40;;;7.20;99.90;;;;;;5009343;28;20098;-66
2022/04/25 00:42:51;;;;;;;0.40;0.30;;;7.20;99.90;;;;;;5004302;28;20590;-64
2022/04/25 00:45:19;;;;;;;0.55;0.40;;;7.20;99.90;;;;;;5012518;28;20047;-65
2022/04/25 00:47:46;;;;;;;0.45;0.43;;;7.20;99.90;;;;;;5004582;28;20036;-65
2022/04/25 00:50:14;;;;;;;0.35;0.32;;;7.20;99.90;;;;;;5009216;28;20044;-65
2022/04/25 00:52:42;;;;;;;0.30;0.30;;;7.20;99.90;;;;;;5008806;28;20405;-65
2022/04/25 00:55:11;;;;;;;0.40;0.40;;;7.10;99.90;;;;;;5008059;28;20063;-65
2022/04/25 00:57:38;;;;;;;0.60;0.60;;;7.10;99.90;;;;;;5008174;28;20052;-65
2022/04/25 01:00:08;;;;;;;0.80;0.70;;;7.10;99.90;;;;;;5010087;28;20033;-64
2022/04/25 01:02:35;;;;;;;0.80;0.50;;;7.10;99.90;;;;;;5010134;28;20041;-64
2022/04/25 01:05:04;;;;;;;1.23;0.47;;;7.10;99.90;;;;;;5009353;28;20054;-65
2022/04/25 01:07:34;;;;;;;1.10;0.73;;;7.10;99.90;;;;;;5004214;28;20569;-64
2022/04/25 01:10:02;;;;;;;2.00;1.00;;;7.10;99.90;;;;;;4994835;28;20150;-64
2022/04/25 01:12:29;;;;;;;1.63;0.50;;;7.10;99.90;;;;;;4985406;28;20477;-64
2022/04/25 01:14:58;;;;;;;0.70;0.63;;;7.10;99.90;;;;;;4989049;28;20385;-64
2022/04/25 01:17:25;;;;;;;1.92;1.00;;;7.10;99.90;;;;;;5007220;28;20045;-64
2022/04/25 01:19:52;;;;;;;1.73;0.50;;;7.00;99.90;;;;;;5007203;28;20032;-64
2022/04/25 01:22:30;;;;;;;0.85;0.75;;;7.00;99.90;;;;;;5009493;28;20151;-65
2022/04/25 01:27:43;;;;;;;0.82;0.70;;;7.00;99.90;;;;;;5008938;28;20186;-64
2022/04/25 01:30:10;;;;;;;1.02;0.57;;;7.00;99.90;;;;;;5007560;28;20363;-64
2022/04/25 01:32:38;;;;;;;1.30;0.70;;;7.00;99.90;;;;;;5006698;28;20102;-64
2022/04/25 01:35:06;;;;;;;0.63;0.63;;;7.00;99.90;;;;;;5007025;28;20251;-65
2022/04/25 01:37:33;;;;;;;1.85;1.35;;;7.00;99.90;;;;;;5006740;28;20051;-64
2022/04/25 01:40:00;;;;;;;2.60;2.10;;;6.90;99.90;;;;;;5007485;28;20036;-64
2022/04/25 01:42:27;;;;;;;1.52;1.30;;;7.00;99.90;;;;;;5008175;28;20193;-65
2022/04/25 01:44:54;;;;;;;;;;;6.90;99.90;;;;;;5007489;28;20052;-65
2022/04/25 01:47:21;;;;;;;1.45;1.30;;;6.90;99.90;;;;;;5006368;28;19930;-65
2022/04/25 01:49:48;;;;;;;2.33;1.73;;;6.90;99.90;;;;;;5008956;28;20048;-65
2022/04/25 01:52:29;;;;;;;1.77;1.20;;;6.90;99.90;;;;;;5009351;28;20550;-64
2022/04/25 01:54:56;;;;;;;1.50;1.20;;;6.90;99.90;;;;;;5006619;28;20894;-63
2022/04/25 01:57:23;;;;;;;1.65;1.45;;;6.90;99.90;;;;;;5015581;28;20048;-65
2022/04/25 01:59:51;;;;;;;3.15;1.67;;;6.90;99.90;;;;;;5006929;28;20032;-63
2022/04/25 02:02:19;;;;;;;1.38;1.27;;;6.90;99.90;;;;;;5005569;28;20320;-65
2022/04/25 02:04:46;;;;;;;2.25;1.55;;;6.90;99.90;;;;;;5006368;28;20326;-65
2022/04/25 02:07:13;;;;;;;1.60;1.20;;;6.90;99.90;;;;;;5004829;28;20202;-63
2022/04/25 02:09:40;;;;;;;1.10;1.00;;;7.00;99.90;;;;;;4994537;28;20037;-64
2022/04/25 02:12:08;;;;;;;3.30;1.20;;;7.00;99.90;;;;;;4986385;28;20929;-64
2022/04/25 02:14:35;;;;;;;0.70;0.70;;;7.00;99.90;;;;;;4990080;28;20368;-65
2022/04/25 02:17:03;;;;;;;0.93;0.70;;;7.00;99.90;;;;;;5000251;28;20444;-65
2022/04/25 02:19:30;;;;;;;0.52;0.52;;;7.00;99.90;;;;;;5008027;28;20036;-64
2022/04/25 02:21:57;;;;;;;0.88;0.70;;;7.00;99.90;;;;;;5007715;28;20053;-65
2022/04/25 02:24:24;;;;;;;0.50;0.50;;;7.00;99.90;;;;;;5008220;28;20201;-64
2022/04/25 02:26:51;;;;;;;3.05;0.80;;;7.10;99.90;;;;;;5006269;28;20040;-64
2022/04/25 02:29:22;;;;;;;0.65;0.65;;;7.10;99.90;;;;;;5008574;28;20105;-65
2022/04/25 02:31:49;;;;;;;0.63;0.57;;;7.10;99.90;;;;;;5007215;28;20549;-65
2022/04/25 02:34:16;;;;;;;0.52;0.50;;;7.10;99.90;;;;;;5006895;28;20051;-65
2022/04/25 02:36:43;;;;;;;0.30;0.30;;;7.10;99.90;;;;;;4988570;28;20351;-65
2022/04/25 02:39:10;;;;;;;;;;;7.10;99.90;;;;;;5008300;28;20041;-65
2022/04/25 02:41:37;;;;;;;0.73;0.60;;;7.10;99.90;;;;;;5005769;28;19932;-65
2022/04/25 02:44:03;;;;;;;;;;;7.10;99.90;;;;;;5012450;28;20289;-66
2022/04/25 02:46:31;;;;;;;0.60;0.60;;;7.10;99.90;;;;;;5012457;28;19947;-64
2022/04/25 02:48:58;;;;;;;0.82;0.50;;;7.10;99.90;;;;;;5009704;28;20141;-64
2022/04/25 02:51:25;;;;;;;0.95;0.80;;;7.10;99.90;;;;;;5012710;28;20513;-64
2022/04/25 02:53:51;;;;;;;;;;;7.10;99.90;;;;;;5011112;28;20358;-64
2022/04/25 02:56:18;;;;;;;1.33;0.45;;;7.10;99.90;;;;;;5011815;28;20686;-64
2022/04/25 02:58:45;;;;;;;;;;;7.10;99.90;;;;;;5011634;28;20301;-64
2022/04/25 03:01:12;;;;;;;0.55;0.55;;;7.10;99.90;;;;;;5011303;28;19928;-65
2022/04/25 03:03:39;;;;;;;1.65;0.70;;;7.10;99.90;;;;;;4995626;28;20845;-64
2022/04/25 03:06:10;;;;;;;0.75;0.70;;;7.10;99.90;;;;;;4992270;28;20178;-64
2022/04/25 03:08:39;;;;;;;1.10;0.70;;;7.10;99.90;;;;;;4989068;28;20212;-64
2022/04/25 03:11:11;;;;;;;0.75;0.60;;;7.10;99.90;;;;;;4989541;28;20144;-65
2022/04/25 03:13:41;;;;;;;0.52;0.30;;;7.10;99.90;;;;;;4989552;28;20059;-64
2022/04/25 03:16:09;;;;;;;0.40;0.40;;;7.10;99.90;;;;;;5000024;28;20280;-64
2022/04/25 03:18:36;;;;;;;0.52;0.50;;;7.10;99.90;;;;;;5007109;28;20033;-63
2022/04/25 03:21:04;;;;;;;1.60;0.68;;;7.10;99.90;;;;;;5009599;28;20147;-65
2022/04/25 03:23:30;;;;;;;0.68;0.68;;;7.10;99.90;;;;;;5010997;28;20098;-64
2022/04/25 03:25:57;;;;;;;;;;;7.10;99.90;;;;;;5011908;28;20051;-64
2022/04/25 03:28:24;;;;;;;0.60;0.60;;;7.10;99.90;;;;;;5010306;28;19920;-64
2022/04/25 03:30:51;;;;;;;6.28;0.60;;;7.10;99.90;;;;;;5011513;28;20562;-64
2022/04/25 03:33:19;;;;;;;0.25;0.25;;;7.20;99.90;;;;;;5009123;28;20072;-63
2022/04/25 03:35:47;;;;;;;0.50;0.50;;;7.20;99.90;;;;;;5009651;28;20226;-64
2022/04/25 03:38:17;;;;;;;1.83;0.50;;;7.20;99.90;;;;;;5009480;28;20056;-64
2022/04/25 03:40:45;;;;;;;0.32;0.32;;;7.20;99.90;;;;;;5009621;28;20040;-63
2022/04/25 03:43:15;;;;;;;1.60;0.50;;;7.20;99.90;;;;;;5010692;28;20115;-65
2022/04/25 03:45:43;;;;;;;0.80;0.80;;;7.20;99.90;;;;;;5011269;28;20071;-64
2022/04/25 03:48:10;;;;;;;2.03;1.00;;;7.20;99.90;;;;;;5007679;28;20545;-65
2022/04/25 03:50:37;;;;;;;1.15;1.05;;;7.20;99.90;;;;;;5009714;28;20777;-64
2022/04/25 03:53:09;;;;;;;1.35;1.13;;;7.20;99.90;;;;;;5010719;28;20659;-63
2022/04/25 03:58:22;;;;;;;5.63;2.22;;;7.20;99.90;;;;;;5010613;28;20665;-65
2022/04/25 04:00:49;;;;;;;5.05;2.13;;;7.20;99.90;;;;;;5008729;28;20293;-64
2022/04/25 04:03:18;;;;;;;5.82;2.92;;;7.20;99.90;;;;;;5011357;28;20150;-65
2022/04/25 04:05:46;;;;;;;4.15;2.17;;;7.20;99.90;;;;;;5009205;28;20048;-64
2022/04/25 04:08:13;;;;;;;3.83;2.50;;;7.20;99.90;;;;;;5010080;28;20829;-64
2022/04/25 04:10:41;;;;;;;2.40;1.90;;;7.20;99.90;;;;;;5007971;28;20032;-64
2022/04/25 04:13:08;;;;;;;2.35;1.88;;;7.20;99.90;;;;;;4987696;28;20628;-65
2022/04/25 04:15:36;;;;;;;6.05;2.00;;;7.20;99.90;;;;;;4995589;28;20245;-64
2022/04/25 04:18:06;;;;;;;2.92;1.70;;;7.20;99.90;;;;;;5006620;28;20058;-64
2022/04/25 04:20:34;;;;;;;3.25;1.27;;;7.20;99.90;;;;;;5011481;28;20048;-64
2022/04/25 04:23:02;;;;;;;2.25;1.20;;;7.20;99.90;;;;;;5010620;28;20355;-64
2022/04/25 04:25:31;;;;;;;1.30;1.20;;;7.20;99.90;;;;;;5007973;28;20461;-63
2022/04/25 04:27:58;;;;;;;3.13;1.40;;;7.20;99.90;;;;;;5010267;28;20052;-64
2022/04/25 04:30:25;;;;;;;1.73;1.00;;;7.20;99.90;;;;;;5010507;28;20044;-64
2022/04/25 04:32:52;;;;;;;1.27;0.88;;;7.20;99.90;;;;;;5009912;28;20205;-56
2022/04/25 04:38:05;;;;;;;0.80;0.80;;;7.20;99.90;;;;;;5011429;28;20044;-54
2022/04/25 04:40:34;;;;;;;0.55;0.55;;;7.30;99.90;;;;;;5007420;28;20217;-56
2022/04/25 04:43:02;;;;;;;0.63;0.63;;;7.30;99.90;;;;;;4993377;28;20189;-56
2022/04/25 04:45:30;;;;;;;3.97;0.73;;;7.30;99.90;;;;;;5012042;28;20136;-54
2022/04/25 04:47:57;;;;;;;1.50;0.70;;;7.30;99.90;;;;;;5007164;28;20667;-56
2022/04/25 04:50:24;;;;;;;0.90;0.85;;;7.30;99.90;;;;;;5010371;28;20557;-56
2022/04/25 04:52:59;;;;;;;1.75;0.50;;;7.30;99.90;;;;;;5007548;28;20048;-55
2022/04/25 04:55:26;;;;;;;0.93;0.70;;;7.30;99.90;;;;;;5010596;28;20048;-55
2022/04/25 04:57:55;;;;;;;0.40;0.40;;;7.40;99.90;;;;;;5006033;28;20160;-55
2022/04/25 05:00:23;;;;;;;0.60;0.60;;;7.40;99.90;;;;;;5008237;28;20841;-56
2022/04/25 05:02:51;;;;;;;0.80;0.80;;;7.40;99.90;;;;;;4993111;28;20745;-55
2022/04/25 05:05:19;;;;;;;2.17;1.00;;;7.40;99.90;;;;;;5010365;28;20157;-47
2022/04/25 05:07:46;;;;;;;1.02;0.80;;;7.40;99.90;;;;;;5007460;28;20041;-51
2022/04/25 05:10:13;;;;;;;0.90;0.88;;;7.50;99.90;;;;;;5009269;28;20072;-55
2022/04/25 05:12:49;;;;;;;1.17;0.88;;;7.40;99.90;;;;;;5003555;28;20037;-56
2022/04/25 05:15:18;;;;;;;2.70;0.98;;;7.40;99.90;;;;;;5001995;28;20790;-56
2022/04/25 05:17:49;;;;;;;1.65;0.70;;;7.50;99.90;;;;;;5006376;28;20047;-55
2022/04/25 05:20:18;;;;;;;2.60;1.10;;;7.50;99.90;;;;;;5011012;28;20059;-56
2022/04/25 05:22:47;;;;;;;3.28;0.90;;;7.50;99.90;;;;;;5009618;28;20055;-57
2022/04/25 05:25:16;;;;;;;1.20;0.80;;;7.50;99.90;;;;;;5018441;28;20040;-56
2022/04/25 05:27:46;;;;;;;1.10;1.00;;;7.60;99.90;;;;;;5008484;28;20025;-56
2022/04/25 05:30:15;;;;;;;1.63;1.17;;;7.60;99.90;;;;;;5021195;28;20545;-55
2022/04/25 05:32:50;;;;;;;1.25;0.80;;;7.60;99.90;;;;;;5021331;28;20044;-54
2022/04/25 05:35:19;;;;;;;1.45;1.00;;;7.70;99.90;;;;;;5037019;28;20130;-56
2022/04/25 05:37:46;;;;;;;1.17;1.02;;;7.70;99.90;;;;;;5023251;28;20055;-56
2022/04/25 05:40:14;;;;;;;1.20;0.93;;;7.70;99.90;;;;;;5021064;28;20248;-56
2022/04/25 05:42:42;;;;;;;1.20;0.90;;;7.80;99.90;;;;;;5008532;28;20151;-58
2022/04/25 05:45:10;;;;;;;1.00;0.90;;;7.80;99.90;;;;;;5008872;28;20105;-55
2022/04/25 05:47:38;;;;;;;1.67;1.00;;;7.80;99.90;;;;;;4991510;28;20221;-56
2022/04/25 05:52:54;;;;;;;1.48;1.38;;;7.90;99.90;;;;;;5010016;28;20513;-59
2022/04/25 05:55:22;;;;;;;1.50;1.30;;;7.90;99.90;;;;;;5009303;28;20036;-59
2022/04/25 05:57:50;;;;;;;1.92;1.23;;;7.90;99.90;;;;;;5008246;28;20209;-55
2022/04/25 06:00:24;;;;;;;2.17;1.95;;;7.90;99.90;;;;;;5009341;28;20557;-55
2022/04/25 06:02:52;;;;;;;1.60;1.50;;;7.90;99.90;;;;;;5007582;28;20200;-57
2022/04/25 06:05:19;;;;;;;3.85;2.00;;;7.90;99.90;;;;;;5017490;28;20278;-59
2022/04/25 06:07:47;;;;;;;1.15;1.02;;;7.90;99.90;;;;;;5009409;28;20151;-63
2022/04/25 06:10:17;;;;;;;2.70;1.83;;;7.90;99.90;;;;;;5009951;28;20558;-56
2022/04/25 06:12:50;;;;;;;1.20;1.10;;;7.90;99.90;;;;;;5005499;28;20047;-57
2022/04/25 06:15:20;;;;;;;1.88;1.35;;;8.00;99.90;;;;;;4990645;28;20111;-56
2022/04/25 06:17:51;;;;;;;1.80;1.08;;;8.00;99.90;;;;;;5006999;28;20215;-55
2022/04/25 06:20:18;;;;;;;4.07;1.60;;;8.00;99.90;;;;;;5010346;28;20040;-55
2022/04/25 06:23:00;;;;;;;1.80;1.20;;;8.00;99.90;;;;;;5009894;28;20119;-55
2022/04/25 06:25:28;;;;;;;3.13;1.20;;;8.10;99.90;;;;;;5006320;28;20465;-55
2022/04/25 06:28:00;;;;;;;2.83;1.30;;;8.10;99.90;;;;;;5005287;28;20266;-55
2022/04/25 06:30:28;;;;;;;2.38;1.17;;;8.10;99.90;;;;;;5008828;28;20217;-58
2022/04/25 06:33:02;;;;;;;1.38;0.90;;;8.10;99.90;;;;;;5007761;28;20648;-59
2022/04/25 06:35:29;;;;;;;0.95;0.70;;;8.10;99.90;;;;;;5005009;28;20048;-59
2022/04/25 06:37:56;;;;;;;0.60;0.60;;;8.10;99.90;;;;;;5007871;28;20064;-57
2022/04/25 06:40:23;;;;;;;1.23;0.82;;;8.10;99.90;;;;;;5007585;28;20098;-56
2022/04/25 06:42:53;;;;;;;1.13;0.90;;;8.10;99.90;;;;;;5008132;28;20045;-56
2022/04/25 06:45:20;;;;;;;3.28;1.23;;;8.10;99.90;;;;;;5008903;28;20040;-57
2022/04/25 06:47:48;;;;;;;0.80;0.80;;;8.10;99.90;;;;;;5027231;28;20037;-55
2022/04/25 06:50:15;;;;;;;1.38;0.70;;;8.20;99.90;;;;;;5027166;28;20856;-58
2022/04/25 06:52:42;;;;;;;2.38;0.95;;;8.10;99.90;;;;;;5007553;28;20037;-58
2022/04/25 06:55:10;;;;;;;1.85;0.70;;;8.20;99.90;;;;;;5006134;28;20056;-58
2022/04/25 06:57:37;;;;;;;2.67;0.73;;;8.20;99.90;;;;;;5007955;28;20213;-57
2022/04/25 07:00:08;;;;;;;0.82;0.80;;;8.20;99.90;;;;;;4989888;28;20217;-57
2022/04/25 07:02:55;;;;;;;0.52;0.52;;;8.30;99.90;;;;;;5008443;28;20048;-57
2022/04/25 07:05:24;;;;;;;1.20;0.95;;;8.40;99.90;;;;;;5006634;28;20143;-57
2022/04/25 07:07:52;;;;;;;0.60;0.60;;;8.50;99.90;;;;;;4985076;28;20787;-61
2022/04/25 07:10:19;;;;;;;1.13;0.60;;;8.60;99.90;;;;;;4983510;28;20186;-61
2022/04/25 07:12:46;;;;;;;2.33;0.60;;;8.70;99.90;;;;;;4990031;28;20538;-59
2022/04/25 07:15:13;;;;;;;1.27;0.50;;;8.80;99.90;;;;;;4988716;28;20561;-61
2022/04/25 07:17:40;;;;;;;0.60;0.55;;;8.80;99.90;;;;;;4978461;28;20248;-61
2022/04/25 07:20:07;;;;;;;;;;;8.90;99.90;;;;;;4991134;28;20048;-62
2022/04/25 07:30:51;;;;;;;1.58;0.60;;;9.30;99.90;;;;;;4986988;28;20146;-58
2022/04/25 07:33:18;;;;;;;1.08;0.80;;;9.40;99.90;;;;;;4992287;28;20042;-57
2022/04/25 07:35:45;;;;;;;;;;;9.40;99.90;;;;;;5007965;28;20114;-57
2022/04/25 07:38:12;;;;;;;0.63;0.60;;;9.50;99.90;;;;;;5010439;28;20830;-56
2022/04/25 07:40:41;;;;;;;0.88;0.60;;;9.60;99.90;;;;;;5008677;28;20864;-57
2022/04/25 07:43:09;;;;;;;1.17;0.60;;;9.60;99.90;;;;;;4991183;28;20574;-57
2022/04/25 07:45:36;;;;;;;0.85;0.70;;;9.60;99.90;;;;;;5010794;28;20048;-58
2022/04/25 07:48:03;;;;;;;1.25;0.50;;;9.60;99.90;;;;;;5011094;28;20049;-60
2022/04/25 07:50:30;;;;;;;1.10;0.55;;;9.60;99.90;;;;;;5008577;28;20056;-59
2022/04/25 07:52:57;;;;;;;0.80;0.40;;;9.70;99.90;;;;;;5006185;28;20051;-65
2022/04/25 07:55:24;;;;;;;;;;;9.70;99.90;;;;;;5008454;28;20577;-57
2022/04/25 07:57:51;;;;;;;0.50;0.50;;;9.70;99.90;;;;;;5009846;28;20450;-58
2022/04/25 08:00:18;;;;;;;1.35;0.45;;;9.80;99.90;;;;;;5002399;28;20739;-57
2022/04/25 08:02:45;;;;;;;0.85;0.50;;;9.80;99.90;;;;;;5001533;28;20283;-58
2022/04/25 08:05:12;;;;;;;0.50;0.50;;;9.80;99.90;;;;;;4989861;28;20048;-61
2022/04/25 08:07:40;;;;;;;1.15;0.75;;;9.70;99.90;;;;;;4978434;28;20867;-56
2022/04/25 08:10:07;;;;;;;0.63;0.60;;;9.70;99.90;;;;;;5013490;28;20200;-58
2022/04/25 08:18:06;;;;;;;2.83;0.88;;;9.70;99.90;;;;;;5004885;28;20583;-64
2022/04/25 08:20:36;;;;;;;0.60;0.60;;;9.80;99.90;;;;;;5004438;28;20060;-61
2022/04/25 08:23:05;;;;;;;0.45;0.45;;;9.80;99.90;;;;;;5004965;28;20240;-58
2022/04/25 08:25:32;;;;;;;0.50;0.50;;;9.80;99.90;;;;;;4987530;28;20375;-57
2022/04/25 08:28:00;;;;;;;0.55;0.55;;;9.90;99.90;;;;;;4996433;28;20155;-57
2022/04/25 08:30:28;;;;;;;0.50;0.50;;;9.90;99.90;;;;;;5007957;28;20041;-56
2022/04/25 08:32:56;;;;;;;0.57;0.45;;;9.90;99.90;;;;;;5006878;28;20376;-59
2022/04/25 08:35:24;;;;;;;0.30;0.30;;;9.90;99.90;;;;;;5006453;28;20557;-59
2022/04/25 08:37:51;;;;;;;2.45;0.77;;;9.90;99.90;;;;;;5004561;28;20041;-60
2022/04/25 08:40:18;;;;;;;1.05;0.68;;;10.00;99.90;;;;;;5008774;28;20037;-59
2022/04/25 08:42:45;;;;;;;0.60;0.50;;;10.00;99.90;;;;;;5006956;28;20214;-57
2022/04/25 08:45:13;;;;;;;1.08;0.60;;;10.10;99.90;;;;;;5008667;28;20583;-57
2022/04/25 08:47:55;;;;;;;0.73;0.73;;;10.20;99.90;;;;;;5009457;28;20560;-58
2022/04/25 08:50:23;;;;;;;0.55;0.55;;;10.30;99.90;;;;;;5008923;28;20213;-58
2022/04/25 08:52:51;;;;;;;0.50;0.50;;;10.40;99.90;;;;;;5009718;28;20312;-58
2022/04/25 08:55:18;;;;;;;0.50;0.50;;;10.50;99.90;;;;;;5007868;28;20041;-58
2022/04/25 08:57:47;;;;;;;0.57;0.43;;;10.70;99.90;;;;;;5007948;28;20699;-57
2022/04/25 09:00:15;;;;;;;0.50;0.50;;;10.80;99.90;;;;;;5008758;28;20545;-57
2022/04/25 09:02:44;;;;;;;0.47;0.47;;;10.80;99.90;;;;;;5009922;28;20040;-57
2022/04/25 09:05:12;;;;;;;0.40;0.40;;;10.90;99.90;;;;;;5030113;28;20032;-58
2022/04/25 09:07:40;;;;;;;0.90;0.40;;;10.90;99.90;;;;;;5007795;28;20813;-58
2022/04/25 09:10:12;;;;;;;0.98;0.50;;;11.00;99.90;;;;;;5028989;28;20522;-58
2022/04/25 09:12:42;;;;;;;0.38;0.38;;;11.20;99.90;;;;;;5027047;28;20562;-58
2022/04/25 09:15:29;;;;;;;0.60;0.60;;;11.30;99.90;;;;;;5020002;28;20143;-59
2022/04/25 09:17:57;;;;;;;0.70;0.60;;;11.50;99.90;;;;;;5006951;28;20206;-57
2022/04/25 09:20:26;;;;;;;0.47;0.40;;;11.70;99.90;;;;;;5018563;28;20048;-57
2022/04/25 09:22:55;;;;;;;1.10;0.52;;;11.90;99.90;;;;;;5020951;28;20920;-58
2022/04/25 09:25:22;;;;;;;0.73;0.70;;;12.10;99.90;;;;;;5020537;28;20063;-58
2022/04/25 09:28:12;;;;;;;1.52;0.85;;;12.10;99.90;;;;;;5020193;28;20048;-57
2022/04/25 09:30:55;;;;;;;0.60;0.60;;;12.10;99.90;;;;;;5021669;28;20099;-58
2022/04/25 09:33:23;;;;;;;0.70;0.65;;;12.10;99.90;;;;;;5020775;28;20044;-57
2022/04/25 09:35:55;;;;;;;1.27;1.00;;;12.00;99.90;;;;;;5020595;28;20040;-58
2022/04/25 09:38:30;;;;;;;0.85;0.85;;;12.00;99.90;;;;;;5017422;28;20048;-58
2022/04/25 09:40:57;;;;;;;1.15;0.90;;;11.90;99.90;;;;;;5005578;28;20305;-58
2022/04/25 09:43:32;;;;;;;0.90;0.88;;;11.70;99.90;;;;;;5009000;28;20044;-58
2022/04/25 09:46:04;;;;;;;1.25;1.00;;;11.60;99.90;;;;;;5008288;28;20232;-58
2022/04/25 09:48:32;;;;;;;0.90;0.90;;;11.50;99.90;;;;;;5009334;28;20048;-58
2022/04/25 09:51:11;;;;;;;1.75;1.08;;;11.50;99.90;;;;;;5008185;28;20341;-58
2022/04/25 09:53:57;;;;;;;1.20;1.10;;;11.40;99.90;;;;;;5006343;28;20524;-58
2022/04/25 09:56:27;;;;;;;1.08;1.00;;;11.50;99.90;;;;;;5005867;28;20048;-58
2022/04/25 09:59:06;;;;;;;1.90;1.33;;;11.60;99.90;;;;;;4988223;28;20588;-56
2022/04/25 10:01:35;;;;;;;2.13;1.40;;;11.70;99.90;;;;;;5003818;28;20033;-58
2022/04/25 10:04:05;;;;;;;2.45;2.00;;;11.70;99.90;;;;;;5002206;28;20040;-59
2022/04/25 10:06:34;;;;;;;2.47;1.83;;;11.70;99.90;;;;;;5005902;28;20880;-58
2022/04/25 10:09:04;;;;;;;5.55;2.40;;;11.80;99.90;;;;;;5005350;28;20516;-58
2022/04/25 10:11:34;;;;;;;3.13;2.20;;;11.80;99.90;;;;;;5004177;28;20044;-58
2022/04/25 10:14:02;;;;;;;1.90;1.70;;;11.90;99.90;;;;;;5007250;28;20051;-57
2022/04/25 10:16:31;;;;;;;6.13;2.47;;;12.10;99.90;;;;;;5005415;28;20155;-60
2022/04/25 10:18:59;;;;;;;4.72;2.75;;;12.40;99.90;;;;;;4993359;28;20205;-60
2022/04/25 10:21:30;;;;;;;6.22;2.75;;;12.80;99.90;;;;;;4987607;28;20037;-59
2022/04/25 10:23:57;;;;;;;6.65;2.90;;;13.20;99.90;;;;;;4988637;28;20118;-60
2022/04/25 10:26:29;;;;;;;1.77;1.40;;;13.60;99.90;;;;;;4985576;28;20045;-59
2022/04/25 10:29:10;;;;;;;1.60;1.40;;;13.90;99.90;;;;;;4986421;28;20033;-58
2022/04/25 10:31:43;;;;;;;2.13;1.88;;;14.20;99.90;;;;;;5004135;28;20040;-58
2022/04/25 10:34:15;;;;;;;1.60;1.10;;;14.50;99.90;;;;;;5005881;28;20709;-58
2022/04/25 10:36:45;;;;;;;1.50;1.35;;;14.50;99.90;;;;;;5002816;28;20033;-58
2022/04/25 10:39:27;;;;;;;2.60;1.38;;;14.40;99.90;;;;;;4981447;28;20207;-57
2022/04/25 10:44:42;;;;;;;2.58;1.52;;;14.20;99.90;;;;;;4998793;28;20329;-60
2022/04/25 10:47:11;;;;;;;2.42;1.45;;;14.20;99.90;;;;;;4998391;28;20041;-59
2022/04/25 10:49:42;;;;;;;4.07;2.60;;;14.10;99.90;;;;;;5002701;28;20221;-59
2022/04/25 10:52:32;;;;;;;1.30;1.15;;;14.10;99.90;;;;;;4998608;28;20049;-58
2022/04/25 10:55:12;;;;;;;1.73;1.40;;;14.10;99.90;;;;;;4998688;28;20041;-59
2022/04/25 10:58:04;;;;;;;1.75;1.35;;;14.10;99.90;;;;;;5001666;28;20140;-58
2022/04/25 11:00:37;;;;;;;1.92;1.60;;;14.20;99.90;;;;;;5001144;28;20541;-61
2022/04/25 11:03:11;;;;;;;1.95;1.38;;;14.20;99.90;;;;;;5006538;28;20037;-61
2022/04/25 11:05:39;;;;;;;1.48;1.20;;;14.20;99.90;;;;;;5025245;28;20890;-58
2022/04/25 11:08:22;;;;;;;1.27;1.13;;;14.10;99.90;;;;;;5030446;28;20054;-59
2022/04/25 11:11:00;;;;;;;1.75;1.33;;;13.90;99.90;;;;;;5032687;28;20576;-59
2022/04/25 11:13:49;;;;;;;1.60;1.50;;;13.80;99.90;;;;;;5029850;28;20180;-59
2022/04/25 11:16:22;;;;;;;3.30;1.40;;;13.80;99.90;;;;;;5016984;28;20586;-59
2022/04/25 11:19:09;;;;;;;3.08;1.80;;;13.60;99.90;;;;;;5010726;28;20139;-58
2022/04/25 11:21:55;;;;;;;1.30;1.20;;;13.60;99.90;;;;;;5010927;28;20878;-57
2022/04/25 11:24:29;;;;;;;1.35;1.25;;;13.60;99.90;;;;;;5008419;28;20394;-60
2022/04/25 11:26:58;;;;;;;1.40;1.30;;;13.50;99.90;;;;;;5010617;28;20107;-59
2022/04/25 11:29:25;;;;;;;4.75;1.55;;;13.50;99.90;;;;;;5010174;28;20044;-60
2022/04/25 11:32:24;;;;;;;2.88;2.42;;;13.40;99.90;;;;;;5011306;28;20554;-57
2022/04/25 11:34:52;;;;;;;2.13;1.73;;;13.50;99.90;;;;;;5009773;28;20798;-58
2022/04/25 11:37:19;;;;;;;3.45;2.10;;;13.50;99.90;;;;;;5007629;28;20209;-59
2022/04/25 11:40:20;;;;;;;2.53;1.80;;;13.50;99.90;;;;;;4993707;28;20093;-59
2022/04/25 11:42:47;;;;;;;1.38;1.23;;;13.60;99.90;;;;;;5005011;28;20900;-59
2022/04/25 11:45:14;;;;;;;1.88;1.65;;;13.50;99.90;;;;;;5006663;28;20155;-59
2022/04/25 11:47:41;;;;;;;1.60;1.50;;;13.50;99.90;;;;;;5010766;28;20671;-59
2022/04/25 11:50:12;;;;;;;1.55;1.42;;;13.50;99.90;;;;;;5006904;28;20032;-60
2022/04/25 11:52:47;;;;;;;1.70;1.60;;;13.50;99.90;;;;;;5010796;28;20848;-60
2022/04/25 11:55:17;;;;;;;2.20;1.10;;;13.50;99.90;;;;;;5008078;28;20146;-59
2022/04/25 11:57:45;;;;;;;1.90;1.38;;;13.50;99.90;;;;;;5009280;28;20584;-59
2022/04/25 12:00:17;;;;;;;2.10;1.40;;;13.50;99.90;;;;;;5009717;28;20044;-59
2022/04/25 12:02:45;;;;;;;1.23;1.15;;;13.50;99.90;;;;;;5007311;28;20032;-59
2022/04/25 12:05:13;;;;;;;1.23;1.13;;;13.40;99.90;;;;;;5003342;28;20535;-57
2022/04/25 12:16:04;;;;;;;2.67;1.42;;;13.10;99.90;;;;;;4989277;28;20316;-57
2022/04/25 12:18:32;;;;;;;1.98;1.55;;;13.10;99.90;;;;;;4988180;28;20281;-57
2022/04/25 12:21:04;;;;;;;1.70;1.60;;;13.00;99.90;;;;;;4990524;28;20874;-56
2022/04/25 12:23:42;;;;;;;1.25;1.05;;;12.90;99.90;;;;;;4987357;28;20040;-58
2022/04/25 12:26:18;;;;;;;4.15;1.30;;;12.90;99.90;;;;;;4987583;28;20048;-58
2022/04/25 12:28:52;;;;;;;1.02;0.93;;;12.90;99.90;;;;;;4998612;28;20443;-57
2022/04/25 12:31:19;;;;;;;1.45;0.88;;;12.90;99.90;;;;;;5012702;28;20216;-58
2022/04/25 12:33:50;;;;;;;2.75;1.02;;;12.90;99.90;;;;;;5023612;28;20865;-59
2022/04/25 12:36:27;;;;;;;1.42;1.10;;;12.80;99.90;;;;;;5020550;28;20166;-58
2022/04/25 12:39:13;;;;;;;1.63;1.30;;;12.70;99.90;;;;;;5033135;28;20284;-61
2022/04/25 12:41:51;;;;;;;1.35;0.90;;;12.60;99.90;;;;;;5022122;28;20180;-61
2022/04/25 12:44:18;;;;;;;1.13;0.93;;;12.50;99.90;;;;;;5022955;28;20147;-61
2022/04/25 12:46:59;;;;;;;1.58;0.90;;;12.40;99.90;;;;;;5016285;28;20067;-62
2022/04/25 12:49:46;;;;;;;4.18;0.88;;;12.30;99.90;;;;;;5009245;28;20043;-61
2022/04/25 12:52:14;;;;;;;1.00;0.85;;;12.20;99.90;;;;;;5008879;28;20944;-61
2022/04/25 12:54:49;;;;;;;1.90;0.82;;;12.20;99.90;;;;;;5009375;28;20029;-61
2022/04/25 12:57:17;;;;;;;1.02;0.98;;;12.10;99.90;;;;;;5010304;28;20570;-61
2022/04/25 12:59:57;;;;;;;4.22;1.02;;;12.10;99.90;;;;;;5006435;28;20048;-61
2022/04/25 13:02:32;;;;;;;1.88;1.15;;;12.00;99.90;;;;;;5016018;28;20033;-61
2022/04/25 13:05:08;;;;;;;1.55;1.25;;;12.00;99.90;;;;;;5018452;28;20156;-63
2022/04/25 13:07:42;;;;;;;2.25;1.30;;;11.90;99.90;;;;;;5022894;28;20798;-59
2022/04/25 13:10:12;;;;;;;1.70;1.10;;;11.80;99.90;;;;;;5016810;28;20056;-61
2022/04/25 13:12:41;;;;;;;1.40;1.30;;;11.70;99.90;;;;;;5003857;28;20049;-61
2022/04/25 13:15:12;;;;;;;2.20;1.38;;;11.80;99.90;;;;;;5005308;28;20033;-61
2022/04/25 13:17:40;;;;;;;1.65;1.55;;;11.80;99.90;;;;;;5021401;28;20902;-61
2022/04/25 13:20:14;;;;;;;1.63;1.42;;;11.80;99.90;;;;;;5019095;28;20090;-62
2022/04/25 13:22:42;;;;;;;1.92;1.70;;;12.00;99.90;;;;;;5022025;28;20788;-60
2022/04/25 13:25:11;;;;;;;1.42;1.30;;;12.10;99.90;;;;;;5022468;28;20066;-61
2022/04/25 13:27:38;;;;;;;1.90;1.80;;;12.20;99.90;;;;;;5013554;28;20875;-56
2022/04/25 13:30:08;;;;;;;1.70;1.60;;;12.20;99.90;;;;;;5032868;28;20033;-55
2022/04/25 13:32:36;;;;;;;2.72;2.13;;;12.20;99.90;;;;;;5001865;28;20390;-56
2022/04/25 13:35:04;;;;;;;3.33;2.75;;;12.20;99.90;;;;;;5015995;28;20039;-56
2022/04/25 13:37:31;;;;;;;2.80;2.08;;;12.20;99.90;;;;;;5020616;28;20751;-55
2022/04/25 13:39:59;;;;;;;1.50;1.40;;;12.10;99.90;;;;;;5021748;28;20546;-56
2022/04/25 13:42:26;;;;;;;2.83;1.90;;;12.10;99.90;;;;;;5022777;28;20562;-56
2022/04/25 13:44:53;;;;;;;2.10;1.70;;;12.00;99.90;;;;;;5022076;28;20599;-56